createdAt,value
2022-08-11T00:02:57.173Z,101478.47
2022-08-11T00:06:02.267Z,101474.38
2022-08-11T00:09:08.022Z,101474.72
2022-08-11T00:12:15.180Z,101478.19
2022-08-11T00:15:18.017Z,101474.91
2022-08-11T00:18:21.159Z,101475.50
2022-08-11T00:22:02.099Z,101476.03
2022-08-11T00:24:53.914Z,101482.22
2022-08-11T00:27:57.608Z,101481.50
2022-08-11T00:31:04.725Z,101480.19
2022-08-11T00:34:12.341Z,101473.63
2022-08-11T00:37:22.456Z,101464.25
2022-08-11T00:40:34.594Z,101464.34
2022-08-11T00:43:48.933Z,101475.22
2022-08-11T00:47:00.726Z,101464.28
2022-08-11T00:50:13.019Z,101475.31
2022-08-11T00:53:35.898Z,101466.16
2022-08-11T00:57:36.959Z,101466.72
2022-08-11T01:00:58.751Z,101469.97
2022-08-11T01:04:24.619Z,101468.63
2022-08-11T01:08:02.741Z,101472.78
2022-08-11T01:11:55.432Z,101479.38
2022-08-11T01:15:40.235Z,101487.91
2022-08-11T01:19:21.733Z,101483.84
2022-08-11T01:23:00.500Z,101480.56
2022-08-11T01:27:00.561Z,101476.25
2022-08-11T01:30:42.607Z,101470.88
2022-08-11T01:34:21.905Z,101476.72
2022-08-11T01:38:08.089Z,101473.03
2022-08-11T01:41:47.996Z,101479.53
2022-08-11T01:45:07.220Z,101469.09
2022-08-11T01:48:20.638Z,101466.66
2022-08-11T01:51:34.079Z,101461.25
2022-08-11T01:54:45.606Z,101465.63
2022-08-11T01:57:57.781Z,101457.72
2022-08-11T02:01:11.789Z,101459.50
2022-08-11T02:04:25.735Z,101459.28
2022-08-11T02:07:33.705Z,101461.50
2022-08-11T02:11:04.602Z,101455.56
2022-08-11T02:14:25.569Z,101457.50
2022-08-11T02:17:48.335Z,101453.28
2022-08-11T02:21:15.456Z,101449.03
2022-08-11T02:24:24.679Z,101453.69
2022-08-11T02:27:40.929Z,101461.16
2022-08-11T02:32:10.903Z,101457.63
2022-08-11T02:34:59.492Z,101454.41
2022-08-11T02:38:19.540Z,101462.78
2022-08-11T02:41:44.361Z,101458.03
2022-08-11T02:45:03.630Z,101459.34
2022-08-11T02:48:40.019Z,101454.53
2022-08-11T02:51:55.786Z,101460.25
2022-08-11T02:55:44.574Z,101460.47
2022-08-11T02:59:12.282Z,101460.41
2022-08-11T03:02:33.149Z,101457.50
2022-08-11T03:06:05.916Z,101453.38
2022-08-11T03:09:19.869Z,101454.63
2022-08-11T03:12:53.541Z,101463.91
2022-08-11T03:16:32.025Z,101458.66
2022-08-11T03:19:47.614Z,101452.47
2022-08-11T03:22:59.956Z,101449.38
2022-08-11T03:26:06.890Z,101445.28
2022-08-11T03:29:18.169Z,101450.72
2022-08-11T03:32:27.679Z,101454.53
2022-08-11T03:35:37.465Z,101456.59
2022-08-11T03:38:52.746Z,101448.03
2022-08-11T03:42:06.770Z,101449.34
2022-08-11T03:45:23.799Z,101443.19
2022-08-11T03:48:39.507Z,101444.88
2022-08-11T03:51:54.287Z,101443.66
2022-08-11T03:55:10.870Z,101454.06
2022-08-11T03:58:53.027Z,101444.00
2022-08-11T04:02:17.474Z,101456.22
2022-08-11T04:06:09.322Z,101454.22
2022-08-11T04:09:46.507Z,101444.84
2022-08-11T04:13:33.770Z,101451.63
2022-08-11T04:16:44.350Z,101452.53
2022-08-11T04:20:27.303Z,101451.13
2022-08-11T04:24:35.223Z,101456.06
2022-08-11T04:28:00.192Z,101456.28
2022-08-11T04:31:50.767Z,101458.75
2022-08-11T04:35:00.371Z,101453.19
2022-08-11T04:38:39.474Z,101470.13
2022-08-11T04:42:44.874Z,101464.78
2022-08-11T04:46:07.395Z,101473.47
2022-08-11T04:50:00.790Z,101467.97
2022-08-11T04:53:53.652Z,101477.41
2022-08-11T04:57:20.070Z,101477.53
2022-08-11T05:00:48.546Z,101490.72
2022-08-11T05:04:27.802Z,101478.50
2022-08-11T05:08:12.866Z,101489.16
2022-08-11T05:11:36.546Z,101487.53
2022-08-11T05:15:06.249Z,101485.50
2022-08-11T05:18:33.246Z,101488.88
2022-08-11T05:21:54.838Z,101495.13
2022-08-11T05:26:43.909Z,101502.97
2022-08-11T05:29:19.777Z,101501.38
2022-08-11T05:32:42.345Z,101505.09
2022-08-11T05:36:00.080Z,101499.25
2022-08-11T05:39:33.958Z,101492.59
2022-08-11T05:43:01.978Z,101491.03
2022-08-11T05:46:26.186Z,101493.66
2022-08-11T05:49:49.538Z,101495.53
2022-08-11T05:53:12.171Z,101494.28
2022-08-11T05:56:18.761Z,101491.97
2022-08-11T05:59:23.386Z,101486.59
2022-08-11T06:02:28.342Z,101499.78
2022-08-11T06:05:38.555Z,101500.75
2022-08-11T06:08:47.317Z,101509.38
2022-08-11T06:11:50.143Z,101510.66
2022-08-11T06:14:56.651Z,101509.56
2022-08-11T06:18:03.767Z,101517.28
2022-08-11T06:21:12.112Z,101518.69
2022-08-11T06:24:16.162Z,101518.41
2022-08-11T06:27:21.641Z,101520.59
2022-08-11T06:30:39.671Z,101524.66
2022-08-11T06:33:55.101Z,101519.50
2022-08-11T06:37:12.843Z,101530.22
2022-08-11T06:40:30.390Z,101530.22
2022-08-11T06:43:55.229Z,101531.47
2022-08-11T06:47:07.708Z,101534.00
2022-08-11T06:50:29.898Z,101529.75
2022-08-11T06:53:34.416Z,101528.72
2022-08-11T06:57:27.934Z,101528.22
2022-08-11T07:00:29.118Z,101521.44
2022-08-11T07:03:43.876Z,101528.34
2022-08-11T07:07:27.785Z,101526.34
2022-08-11T07:11:08.885Z,101526.09
2022-08-11T07:14:32.769Z,101530.69
2022-08-11T07:17:43.589Z,101538.78
2022-08-11T07:21:04.826Z,101542.28
2022-08-11T07:24:59.338Z,101532.75
2022-08-11T07:28:28.091Z,101532.72
2022-08-11T07:31:36.827Z,101533.25
2022-08-11T07:34:45.581Z,101529.50
2022-08-11T07:38:01.653Z,101538.19
2022-08-11T07:41:07.101Z,101536.16
2022-08-11T07:44:11.740Z,101542.19
2022-08-11T07:47:33.299Z,101545.47
2022-08-11T07:50:56.247Z,101539.06
2022-08-11T07:54:16.177Z,101536.09
2022-08-11T07:58:10.259Z,101539.44
2022-08-11T08:01:22.341Z,101542.19
2022-08-11T08:04:46.824Z,101538.03
2022-08-11T08:08:07.637Z,101541.19
2022-08-11T08:11:27.971Z,101549.09
2022-08-11T08:14:50.046Z,101554.03
2022-08-11T08:18:21.036Z,101547.16
2022-08-11T08:21:16.917Z,101551.44
2022-08-11T08:24:21.042Z,101559.44
2022-08-11T08:27:25.853Z,101550.13
2022-08-11T08:30:51.670Z,101550.94
2022-08-11T08:33:54.658Z,101549.53
2022-08-11T08:36:57.529Z,101546.16
2022-08-11T08:40:00.203Z,101544.53
2022-08-11T08:43:08.453Z,101539.94
2022-08-11T08:46:14.526Z,101535.00
2022-08-11T08:49:22.946Z,101530.94
2022-08-11T08:52:33.456Z,101534.38
2022-08-11T08:55:43.633Z,101532.03
2022-08-11T08:58:51.745Z,101534.66
2022-08-11T09:01:59.176Z,101534.25
2022-08-11T09:05:03.775Z,101532.34
2022-08-11T09:08:07.825Z,101529.22
2022-08-11T09:11:29.763Z,101531.97
2022-08-11T09:14:50.185Z,101523.75
2022-08-11T09:18:01.391Z,101527.22
2022-08-11T09:21:04.924Z,101517.25
2022-08-11T09:24:26.529Z,101534.88
2022-08-11T09:27:29.512Z,101527.38
2022-08-11T09:30:32.773Z,101525.31
2022-08-11T09:33:37.577Z,101515.50
2022-08-11T09:37:01.878Z,101517.97
2022-08-11T09:40:22.727Z,101519.06
2022-08-11T09:43:48.074Z,101522.25
2022-08-11T09:46:52.315Z,101523.22
2022-08-11T09:50:01.889Z,101503.56
2022-08-11T09:53:36.808Z,101500.91
2022-08-11T09:56:47.776Z,101500.69
2022-08-11T09:59:53.049Z,101487.78
2022-08-11T10:03:19.016Z,101496.66
2022-08-11T10:06:40.661Z,101498.22
2022-08-11T10:09:50.121Z,101495.91
2022-08-11T10:12:59.742Z,101493.78
2022-08-11T10:16:16.230Z,101498.22
2022-08-11T10:19:22.125Z,101496.94
2022-08-11T10:22:43.788Z,101490.69
2022-08-11T10:26:05.209Z,101485.78
2022-08-11T10:29:33.407Z,101480.34
2022-08-11T10:33:00.138Z,101457.41
2022-08-11T10:36:06.015Z,101465.88
2022-08-11T10:39:23.049Z,101471.38
2022-08-11T10:42:57.119Z,101472.63
2022-08-11T10:46:18.841Z,101469.56
2022-08-11T10:49:33.615Z,101466.84
2022-08-11T10:52:55.458Z,101468.31
2022-08-11T10:56:18.102Z,101460.56
2022-08-11T10:59:23.129Z,101468.47
2022-08-11T11:02:27.337Z,101460.41
2022-08-11T11:05:32.455Z,101451.69
2022-08-11T11:08:57.694Z,101452.56
2022-08-11T11:12:29.797Z,101460.22
2022-08-11T11:15:53.038Z,101455.72
2022-08-11T11:19:01.031Z,101449.91
2022-08-11T11:22:24.346Z,101439.03
2022-08-11T11:26:05.554Z,101442.22
2022-08-11T11:29:25.109Z,101434.69
2022-08-11T11:32:33.888Z,101431.00
2022-08-11T11:35:50.538Z,101426.84
2022-08-11T11:38:56.494Z,101432.41
2022-08-11T11:42:01.747Z,101438.31
2022-08-11T11:45:07.782Z,101428.59
2022-08-11T11:48:12.262Z,101425.63
2022-08-11T11:51:15.184Z,101427.06
2022-08-11T11:54:18.740Z,101420.28
2022-08-11T11:57:58.961Z,101418.00
2022-08-11T12:01:20.108Z,101423.53
2022-08-11T12:04:23.772Z,101411.53
2022-08-11T12:07:44.167Z,101417.84
2022-08-11T12:10:49.479Z,101419.06
2022-08-11T12:13:53.622Z,101417.41
2022-08-11T12:16:58.511Z,101394.41
2022-08-11T12:20:01.620Z,101402.16
2022-08-11T12:23:22.604Z,101399.06
2022-08-11T12:27:16.519Z,101390.38
2022-08-11T12:30:17.424Z,101395.47
2022-08-11T12:33:24.144Z,101388.47
2022-08-11T12:36:27.268Z,101387.47
2022-08-11T12:40:17.030Z,101389.59
2022-08-11T12:43:57.225Z,101390.16
2022-08-11T12:47:02.414Z,101379.63
2022-08-11T12:50:25.399Z,101374.19
2022-08-11T12:53:30.649Z,101365.81
2022-08-11T12:56:56.721Z,101377.13
2022-08-11T13:00:19.000Z,101373.56
2022-08-11T13:03:40.910Z,101360.41
2022-08-11T13:06:44.895Z,101355.31
2022-08-11T13:09:48.072Z,101350.16
2022-08-11T13:12:49.850Z,101359.22
2022-08-11T13:15:53.095Z,101350.53
2022-08-11T13:18:57.162Z,101350.31
2022-08-11T13:22:02.462Z,101341.53
2022-08-11T13:25:06.150Z,101339.16
2022-08-11T13:28:10.991Z,101343.91
2022-08-11T13:31:15.027Z,101338.59
2022-08-11T13:34:19.790Z,101338.91
2022-08-11T13:38:19.473Z,101345.06
2022-08-11T13:40:55.810Z,101337.44
2022-08-11T13:43:59.377Z,101338.94
2022-08-11T13:47:07.685Z,101335.56
2022-08-11T13:50:12.544Z,101327.94
2022-08-11T13:53:20.638Z,101321.66
2022-08-11T13:56:24.083Z,101320.78
2022-08-11T13:59:30.071Z,101318.06
2022-08-11T14:02:34.553Z,101325.63
2022-08-11T14:05:40.944Z,101311.88
2022-08-11T14:08:54.675Z,101303.28
2022-08-11T14:12:23.611Z,101300.13
2022-08-11T14:15:32.084Z,101300.06
2022-08-11T14:18:36.000Z,101288.97
2022-08-11T14:22:06.533Z,101287.81
2022-08-11T14:25:12.655Z,101281.16
2022-08-11T14:28:34.081Z,101283.44
2022-08-11T14:31:39.969Z,101288.72
2022-08-11T14:34:44.731Z,101275.84
2022-08-11T14:37:48.631Z,101270.84
2022-08-11T14:41:11.151Z,101280.44
2022-08-11T14:44:31.413Z,101259.78
2022-08-11T14:47:36.901Z,101274.19
2022-08-11T14:50:40.349Z,101268.91
2022-08-11T14:53:52.048Z,101266.97
2022-08-11T14:57:03.228Z,101261.56
2022-08-11T15:00:08.175Z,101266.09
2022-08-11T15:03:13.725Z,101252.38
2022-08-11T15:06:16.997Z,101253.94
2022-08-11T15:09:19.918Z,101247.59
2022-08-11T15:12:32.617Z,101245.25
2022-08-11T15:16:08.619Z,101246.97
2022-08-11T15:19:12.989Z,101239.59
2022-08-11T15:22:33.350Z,101235.19
2022-08-11T15:25:36.906Z,101221.63
2022-08-11T15:29:04.584Z,101224.44
2022-08-11T15:32:26.314Z,101225.94
2022-08-11T15:35:47.068Z,101220.97
2022-08-11T15:38:56.162Z,101221.78
2022-08-11T15:42:20.212Z,101220.22
2022-08-11T15:45:43.347Z,101222.72
2022-08-11T15:48:52.672Z,101217.19
2022-08-11T15:52:02.279Z,101225.94
2022-08-11T15:55:08.503Z,101225.28
2022-08-11T15:58:32.120Z,101220.97
2022-08-11T16:01:56.502Z,101215.91
2022-08-11T16:05:02.529Z,101207.69
2022-08-11T16:08:05.780Z,101209.13
2022-08-11T16:11:09.663Z,101202.25
2022-08-11T16:14:31.337Z,101203.31
2022-08-11T16:17:41.173Z,101201.06
2022-08-11T16:20:46.110Z,101206.31
2022-08-11T16:23:50.810Z,101202.47
2022-08-11T16:27:10.788Z,101201.25
2022-08-11T16:30:16.224Z,101187.81
2022-08-11T16:33:49.962Z,101196.63
2022-08-11T16:37:04.550Z,101196.56
2022-08-11T16:40:10.291Z,101194.28
2022-08-11T16:43:35.742Z,101190.00
2022-08-11T16:46:56.158Z,101185.56
2022-08-11T16:50:00.738Z,101193.66
2022-08-11T16:53:03.782Z,101185.84
2022-08-11T16:56:08.704Z,101191.28
2022-08-11T16:59:17.123Z,101190.72
2022-08-11T17:02:37.956Z,101194.59
2022-08-11T17:06:03.897Z,101180.38
2022-08-11T17:09:25.260Z,101178.47
2022-08-11T17:12:48.877Z,101185.56
2022-08-11T17:16:08.272Z,101188.97
2022-08-11T17:19:13.901Z,101186.72
2022-08-11T17:22:37.679Z,101189.28
2022-08-11T17:25:58.763Z,101183.88
2022-08-11T17:29:05.615Z,101178.78
2022-08-11T17:32:31.284Z,101183.75
2022-08-11T17:35:53.993Z,101185.03
2022-08-11T17:38:58.049Z,101179.31
2022-08-11T17:42:19.670Z,101184.44
2022-08-11T17:45:42.052Z,101176.72
2022-08-11T17:48:48.254Z,101170.97
2022-08-11T17:52:09.753Z,101173.38
2022-08-11T17:55:51.715Z,101179.16
2022-08-11T17:59:13.402Z,101182.22
2022-08-11T18:02:35.262Z,101181.38
2022-08-11T18:05:40.782Z,101186.81
2022-08-11T18:09:05.035Z,101188.81
2022-08-11T18:12:28.733Z,101182.66
2022-08-11T18:15:50.089Z,101190.06
2022-08-11T18:19:16.446Z,101189.97
2022-08-11T18:22:41.210Z,101191.50
2022-08-11T18:26:07.640Z,101185.13
2022-08-11T18:29:30.128Z,101190.94
2022-08-11T18:33:09.173Z,101197.31
2022-08-11T18:36:40.042Z,101195.31
2022-08-11T18:40:03.989Z,101193.50
2022-08-11T18:43:27.366Z,101196.34
2022-08-11T18:46:53.150Z,101203.47
2022-08-11T18:50:21.097Z,101201.25
2022-08-11T18:54:02.741Z,101202.56
2022-08-11T18:57:26.666Z,101205.16
2022-08-11T19:00:49.221Z,101208.34
2022-08-11T19:04:17.269Z,101213.09
2022-08-11T19:07:40.207Z,101211.84
2022-08-11T19:11:02.729Z,101207.72
2022-08-11T19:14:24.652Z,101208.00
2022-08-11T19:17:46.222Z,101216.22
2022-08-11T19:21:07.765Z,101221.19
2022-08-11T19:24:32.244Z,101220.72
2022-08-11T19:27:53.197Z,101214.00
2022-08-11T19:31:14.583Z,101211.66
2022-08-11T19:34:37.390Z,101222.53
2022-08-11T19:37:59.466Z,101225.91
2022-08-11T19:41:52.015Z,101220.50
2022-08-11T19:45:00.864Z,101218.78
2022-08-11T19:48:31.762Z,101215.63
2022-08-11T19:51:55.544Z,101210.97
2022-08-11T19:55:17.777Z,101209.19
2022-08-11T19:58:38.830Z,101205.41
2022-08-11T20:02:01.248Z,101201.31
2022-08-11T20:05:34.406Z,101214.47
2022-08-11T20:08:59.087Z,101215.22
2022-08-11T20:12:24.212Z,101212.81
2022-08-11T20:15:45.710Z,101215.53
2022-08-11T20:19:08.637Z,101209.22
2022-08-11T20:22:30.053Z,101217.94
2022-08-11T20:25:53.169Z,101221.25
2022-08-11T20:29:18.645Z,101219.50
2022-08-11T20:32:39.646Z,101215.44
2022-08-11T20:36:00.174Z,101220.22
2022-08-11T20:39:21.586Z,101222.03
2022-08-11T20:42:42.935Z,101224.13
2022-08-11T20:46:07.984Z,101224.34
2022-08-11T20:49:44.999Z,101223.88
2022-08-11T20:53:10.752Z,101230.84
2022-08-11T20:56:32.280Z,101228.03
2022-08-11T20:59:56.702Z,101226.22
2022-08-11T21:03:35.550Z,101230.09
2022-08-11T21:06:59.055Z,101225.34
2022-08-11T21:10:23.777Z,101224.84
2022-08-11T21:13:48.399Z,101244.31
2022-08-11T21:17:27.934Z,101235.25
2022-08-11T21:20:51.253Z,101242.84
2022-08-11T21:24:15.622Z,101237.56
2022-08-11T21:27:38.989Z,101247.88
2022-08-11T21:30:59.894Z,101236.38
2022-08-11T21:34:21.787Z,101242.72
2022-08-11T21:37:44.413Z,101240.97
2022-08-11T21:41:11.317Z,101239.19
2022-08-11T21:44:32.602Z,101242.03
2022-08-11T21:48:00.720Z,101248.88
2022-08-11T21:51:21.802Z,101240.25
2022-08-11T21:54:44.390Z,101241.31
2022-08-11T21:58:06.214Z,101238.84
2022-08-11T22:01:26.138Z,101234.78
2022-08-11T22:04:49.235Z,101236.38
2022-08-11T22:08:10.614Z,101233.28
2022-08-11T22:11:33.122Z,101231.69
2022-08-11T22:14:54.047Z,101225.91
2022-08-11T22:18:14.437Z,101227.28
2022-08-11T22:22:01.508Z,101221.31
2022-08-11T22:25:18.490Z,101225.50
2022-08-11T22:28:40.427Z,101219.38
2022-08-11T22:32:01.427Z,101217.69
2022-08-11T22:35:22.404Z,101216.50
2022-08-11T22:38:44.319Z,101213.50
2022-08-11T22:42:05.094Z,101224.28
2022-08-11T22:45:28.055Z,101222.88
2022-08-11T22:48:49.547Z,101222.34
2022-08-11T22:52:09.906Z,101226.81
2022-08-11T22:55:31.317Z,101237.94
2022-08-11T22:58:52.303Z,101230.25
2022-08-11T23:02:13.982Z,101222.16
2022-08-11T23:05:35.306Z,101232.34
2022-08-11T23:08:56.172Z,101226.06
2022-08-11T23:12:16.916Z,101232.34
2022-08-11T23:15:39.226Z,101224.97
2022-08-11T23:19:03.767Z,101237.22
2022-08-11T23:22:24.576Z,101223.88
2022-08-11T23:26:05.233Z,101222.47
2022-08-11T23:29:26.603Z,101226.34
2022-08-11T23:32:49.425Z,101226.72
2022-08-11T23:36:11.618Z,101227.41
2022-08-11T23:39:56.697Z,101221.88
2022-08-11T23:43:16.837Z,101230.03
2022-08-11T23:46:39.156Z,101223.28
2022-08-11T23:50:00.540Z,101224.97
2022-08-11T23:53:23.552Z,101217.75
2022-08-11T23:56:43.745Z,101215.72
